Thunderstorms From: 26-05-2018 09:00 Until: 27-05-2018 05:00 warning for: Thunderstorms Level: Yellow info button

Although rather usual in this region, locally or potentially dangerous phenomena are expected. (such as local winds, summer thunderstorms, rising streams or high waves) Be aware and pay attention to the latest weather updates, especially if you carry out activities exposed to weather or close to a stream or shoreline. 


Meteo18 Weather Cam more information Meteo18 Weather Cam


warning for Thunderstorms more information blitzortung!


Rain radar more information rain snow radar


Visit our other weather sites:

Template documentation
and downloads

And another site



Weather Underground History page Text

Daily Summary for December 17, 2017 Units:  Both    English   Metric
« Previous Day
Next Day »
Daily Weekly Monthly Yearly Custom
  High: Low: Average:
Temperature: TemperatureC °F /  -17.8 °C 0.4 °F /  -17.6 °C 2.5 °F /  -16.4 °C
Dew Point: DewpointC °F /  -17.8 °C -0.5 °F /  -18.1 °C 1.4 °F /  -17 °C
Humidity: Humidity % 76 % 92 %
Wind Speed: WindSpeedKMH mph /  0 km/h - 2.6 mph /  4.2 km/h
Wind Gust: WindSpeedGustKMH mph /  0 km/h - -
Wind:- - WSW
Pressure: PressurehPa in /  0 hPa 1024.3 in /  34682.8 hPa -
Precipitation: 1.5 in /  38.1 mm    
Historical Graphs
 
 
Tabular Data for December 17, 2017
Time Temperature Dew Point Pressure Wind Wind Speed Wind Gust Humidity Rainfall Rate (Hourly)
TemperatureC °F /  -17.8 °C DewpointC °F /  -17.8 °C PressurehPa in /  0 hPa Calm     Humidity % HourlyPrecipMM in /  0 mm
00:02 1.5 °F /  -16.9 °C 0.0 °F /  -17.8 °C 1024.6 in /  34693 hPa Calm   8.0 mph /  12.9 km/h 90 % 0.0 in /  0 mm
00:07 1.3 °F /  -17.1 °C -0.2 °F /  -17.9 °C 1024.6 in /  34693 hPa SE 3.2 mph /  5.1 km/h 4.8 mph /  7.7 km/h 90 % 0.0 in /  0 mm
00:12 1.1 °F /  -17.2 °C -0.4 °F /  -18 °C 1024.9 in /  34703.1 hPa SSE 1.6 mph /  2.6 km/h 3.2 mph /  5.1 km/h 90 % 0.0 in /  0 mm
00:17 0.9 °F /  -17.3 °C -0.4 °F /  -18 °C 1024.9 in /  34703.1 hPa South 1.6 mph /  2.6 km/h 3.2 mph /  5.1 km/h 91 % 0.0 in /  0 mm
00:22 0.9 °F /  -17.3 °C -0.4 °F /  -18 °C 1024.9 in /  34703.1 hPa SSE 3.2 mph /  5.1 km/h 3.2 mph /  5.1 km/h 91 % 0.0 in /  0 mm
00:27 0.9 °F /  -17.3 °C -0.3 °F /  -17.9 °C 1024.9 in /  34703.1 hPa SE 1.6 mph /  2.6 km/h 3.2 mph /  5.1 km/h 92 % 0.0 in /  0 mm
00:32 0.9 °F /  -17.3 °C -0.3 °F /  -17.9 °C 1024.9 in /  34703.1 hPa Calm   3.2 mph /  5.1 km/h 92 % 0.0 in /  0 mm
00:42 0.8 °F /  -17.3 °C -0.4 °F /  -18 °C 1024.6 in /  34693 hPa SSW 1.6 mph /  2.6 km/h 4.8 mph /  7.7 km/h 92 % 0.0 in /  0 mm
00:52 0.7 °F /  -17.4 °C -0.5 °F /  -18.1 °C 1024.6 in /  34693 hPa Calm   4.8 mph /  7.7 km/h 92 % 0.0 in /  0 mm
00:57 0.7 °F /  -17.4 °C -0.3 °F /  -17.9 °C 1024.6 in /  34693 hPa Calm   4.8 mph /  7.7 km/h 93 % 0.0 in /  0 mm
01:02 0.6 °F /  -17.4 °C -0.4 °F /  -18 °C 1024.9 in /  34703.1 hPa SSE 1.6 mph /  2.6 km/h 3.2 mph /  5.1 km/h 93 % 0.0 in /  0 mm
01:07 0.6 °F /  -17.4 °C -0.4 °F /  -18 °C 1024.6 in /  34693 hPa Calm   3.2 mph /  5.1 km/h 93 % 0.0 in /  0 mm
01:12 0.6 °F /  -17.4 °C -0.4 °F /  -18 °C 1024.6 in /  34693 hPa South 1.6 mph /  2.6 km/h 1.6 mph /  2.6 km/h 93 % 0.0 in /  0 mm
01:17 0.5 °F /  -17.5 °C -0.5 °F /  -18.1 °C 1024.6 in /  34693 hPa Calm   6.4 mph /  10.3 km/h 93 % 0.0 in /  0 mm
01:22 0.5 °F /  -17.5 °C -0.4 °F /  -18 °C 1024.6 in /  34693 hPa Calm   6.4 mph /  10.3 km/h 94 % 0.0 in /  0 mm
01:27 0.4 °F /  -17.6 °C -0.5 °F /  -18.1 °C 1024.6 in /  34693 hPa SE 1.6 mph /  2.6 km/h 6.4 mph /  10.3 km/h 94 % 0.0 in /  0 mm
01:37 0.4 °F /  -17.6 °C -0.5 °F /  -18.1 °C 1024.6 in /  34693 hPa SE 1.6 mph /  2.6 km/h 3.2 mph /  5.1 km/h 94 % 0.0 in /  0 mm
01:42 0.4 °F /  -17.6 °C -0.5 °F /  -18.1 °C 1024.6 in /  34693 hPa SE 1.6 mph /  2.6 km/h 3.2 mph /  5.1 km/h 94 % 0.0 in /  0 mm
01:47 0.4 °F /  -17.6 °C -0.5 °F /  -18.1 °C 1024.3 in /  34682.8 hPa SSE 1.6 mph /  2.6 km/h 3.2 mph /  5.1 km/h 94 % 0.0 in /  0 mm
01:52 0.4 °F /  -17.6 °C -0.5 °F /  -18.1 °C 1024.6 in /  34693 hPa Calm   3.2 mph /  5.1 km/h 94 % 0.0 in /  0 mm
01:57 0.4 °F /  -17.6 °C -0.5 °F /  -18.1 °C 1024.6 in /  34693 hPa Calm   3.2 mph /  5.1 km/h 94 % 0.0 in /  0 mm
02:02 0.4 °F /  -17.6 °C -0.3 °F /  -17.9 °C 1024.6 in /  34693 hPa Calm   3.2 mph /  5.1 km/h 95 % 0.0 in /  0 mm
02:12 0.4 °F /  -17.6 °C -0.3 °F /  -17.9 °C 1024.6 in /  34693 hPa Calm   4.8 mph /  7.7 km/h 95 % 0.0 in /  0 mm
02:17 0.4 °F /  -17.6 °C -0.3 °F /  -17.9 °C 1024.9 in /  34703.1 hPa SSE 1.6 mph /  2.6 km/h 4.8 mph /  7.7 km/h 95 % 0.0 in /  0 mm
02:22 0.4 °F /  -17.6 °C -0.3 °F /  -17.9 °C 1024.9 in /  34703.1 hPa Calm   4.8 mph /  7.7 km/h 95 % 0.3 in /  7.62 mm
02:32 0.4 °F /  -17.6 °C -0.3 °F /  -17.9 °C 1024.9 in /  34703.1 hPa SSE 1.6 mph /  2.6 km/h 3.2 mph /  5.1 km/h 95 % 0.3 in /  7.62 mm
02:42 0.6 °F /  -17.4 °C -0.1 °F /  -17.8 °C 1024.9 in /  34703.1 hPa WSW 1.6 mph /  2.6 km/h 4.8 mph /  7.7 km/h 95 % 0.3 in /  7.62 mm
02:47 0.9 °F /  -17.3 °C 0.3 °F /  -17.6 °C 1024.6 in /  34693 hPa Calm   4.8 mph /  7.7 km/h 96 % 0.3 in /  7.62 mm
02:52 0.9 °F /  -17.3 °C 0.2 °F /  -17.7 °C 1024.9 in /  34703.1 hPa WSW 3.2 mph /  5.1 km/h 3.2 mph /  5.1 km/h 95 % 0.5 in /  12.7 mm
02:57 1.1 °F /  -17.2 °C 0.5 °F /  -17.5 °C 1024.9 in /  34703.1 hPa Calm   4.8 mph /  7.7 km/h 96 % 0.5 in /  12.7 mm
03:02 1.2 °F /  -17.1 °C 0.5 °F /  -17.5 °C 1024.9 in /  34703.1 hPa West 3.2 mph /  5.1 km/h 4.8 mph /  7.7 km/h 95 % 0.5 in /  12.7 mm
03:07 1.3 °F /  -17.1 °C 0.7 °F /  -17.4 °C 1024.9 in /  34703.1 hPa Calm   6.4 mph /  10.3 km/h 96 % 0.5 in /  12.7 mm
03:12 1.3 °F /  -17.1 °C 0.6 °F /  -17.4 °C 1024.9 in /  34703.1 hPa West 1.6 mph /  2.6 km/h 6.4 mph /  10.3 km/h 95 % 0.5 in /  12.7 mm
03:17 1.3 °F /  -17.1 °C 0.6 °F /  -17.4 °C 1024.6 in /  34693 hPa WNW 1.6 mph /  2.6 km/h 6.4 mph /  10.3 km/h 95 % 0.5 in /  12.7 mm
03:22 1.3 °F /  -17.1 °C 0.4 °F /  -17.6 °C 1024.6 in /  34693 hPa West 4.8 mph /  7.7 km/h 8.0 mph /  12.9 km/h 94 % 0.5 in /  12.7 mm
03:27 1.2 °F /  -17.1 °C 0.3 °F /  -17.6 °C 1024.6 in /  34693 hPa Calm   8.0 mph /  12.9 km/h 94 % 1.0 in /  25.4 mm
03:32 1.1 °F /  -17.2 °C 0.2 °F /  -17.7 °C 1024.6 in /  34693 hPa WSW 3.2 mph /  5.1 km/h 8.0 mph /  12.9 km/h 94 % 1.0 in /  25.4 mm
03:37 1.1 °F /  -17.2 °C 0.4 °F /  -17.6 °C 1024.6 in /  34693 hPa West 3.2 mph /  5.1 km/h 6.4 mph /  10.3 km/h 95 % 1.3 in /  33.02 mm
03:42 1.0 °F /  -17.2 °C 0.3 °F /  -17.6 °C 1024.6 in /  34693 hPa Calm   4.8 mph /  7.7 km/h 95 % 1.3 in /  33.02 mm
03:47 1.0 °F /  -17.2 °C 0.3 °F /  -17.6 °C 1024.6 in /  34693 hPa Calm   4.8 mph /  7.7 km/h 95 % 1.3 in /  33.02 mm
03:52 0.9 °F /  -17.3 °C 0.2 °F /  -17.7 °C 1024.6 in /  34693 hPa Calm   4.8 mph /  7.7 km/h 95 % 1.0 in /  25.4 mm
03:57 0.9 °F /  -17.3 °C 0.2 °F /  -17.7 °C 1024.6 in /  34693 hPa Calm   4.8 mph /  7.7 km/h 95 % 1.0 in /  25.4 mm
04:02 0.8 °F /  -17.3 °C -0.1 °F /  -17.8 °C 1024.6 in /  34693 hPa SSW 1.6 mph /  2.6 km/h 4.8 mph /  7.7 km/h 94 % 1.0 in /  25.4 mm
04:07 0.6 °F /  -17.4 °C -0.3 °F /  -17.9 °C 1024.6 in /  34693 hPa South 3.2 mph /  5.1 km/h 4.8 mph /  7.7 km/h 94 % 1.3 in /  33.02 mm
04:12 0.6 °F /  -17.4 °C -0.1 °F /  -17.8 °C 1024.6 in /  34693 hPa Calm   4.8 mph /  7.7 km/h 95 % 1.0 in /  25.4 mm
04:17 0.5 °F /  -17.5 °C -0.2 °F /  -17.9 °C 1024.6 in /  34693 hPa SE 1.6 mph /  2.6 km/h 4.8 mph /  7.7 km/h 95 % 0.8 in /  20.32 mm
04:22 0.4 °F /  -17.6 °C -0.3 °F /  -17.9 °C 1024.9 in /  34703.1 hPa ESE 1.6 mph /  2.6 km/h 4.8 mph /  7.7 km/h 95 % 0.5 in /  12.7 mm
04:32 0.4 °F /  -17.6 °C -0.3 °F /  -17.9 °C 1024.6 in /  34693 hPa Calm   4.8 mph /  7.7 km/h 95 % 0.5 in /  12.7 mm
04:37 0.4 °F /  -17.6 °C -0.3 °F /  -17.9 °C 1024.6 in /  34693 hPa Calm   4.8 mph /  7.7 km/h 95 % 0.3 in /  7.62 mm
04:42 0.5 °F /  -17.5 °C -0.1 °F /  -17.8 °C 1024.6 in /  34693 hPa SSW 3.2 mph /  5.1 km/h 4.8 mph /  7.7 km/h 96 % 0.3 in /  7.62 mm
04:47 0.5 °F /  -17.5 °C -0.1 °F /  -17.8 °C 1024.6 in /  34693 hPa South 3.2 mph /  5.1 km/h 4.8 mph /  7.7 km/h 96 % 0.3 in /  7.62 mm
04:52 0.6 °F /  -17.4 °C 0.0 °F /  -17.8 °C 1024.6 in /  34693 hPa Calm   4.8 mph /  7.7 km/h 96 % 0.3 in /  7.62 mm
04:57 0.6 °F /  -17.4 °C 0.0 °F /  -17.8 °C 1024.6 in /  34693 hPa SE 1.6 mph /  2.6 km/h 4.8 mph /  7.7 km/h 96 % 0.3 in /  7.62 mm
05:02 0.6 °F /  -17.4 °C 0.0 °F /  -17.8 °C 1024.6 in /  34693 hPa Calm   4.8 mph /  7.7 km/h 96 % 0.3 in /  7.62 mm
05:07 0.6 °F /  -17.4 °C 0.0 °F /  -17.8 °C 1024.6 in /  34693 hPa Calm   3.2 mph /  5.1 km/h 96 % 0.0 in /  0 mm
05:17 0.7 °F /  -17.4 °C 0.1 °F /  -17.7 °C 1024.6 in /  34693 hPa Calm   3.2 mph /  5.1 km/h 96 % 0.0 in /  0 mm
05:22 0.7 °F /  -17.4 °C 0.1 °F /  -17.7 °C 1024.6 in /  34693 hPa Calm   3.2 mph /  5.1 km/h 96 % 0.0 in /  0 mm
05:32 0.7 °F /  -17.4 °C 0.1 °F /  -17.7 °C 1024.6 in /  34693 hPa South 1.6 mph /  2.6 km/h 3.2 mph /  5.1 km/h 96 % 0.0 in /  0 mm
05:37 0.6 °F /  -17.4 °C 0.0 °F /  -17.8 °C 1024.6 in /  34693 hPa South 1.6 mph /  2.6 km/h 4.8 mph /  7.7 km/h 96 % 0.0 in /  0 mm
05:42 0.7 °F /  -17.4 °C 0.1 °F /  -17.7 °C 1024.6 in /  34693 hPa SSW 3.2 mph /  5.1 km/h 4.8 mph /  7.7 km/h 96 % 0.0 in /  0 mm
05:47 0.7 °F /  -17.4 °C 0.1 °F /  -17.7 °C 1024.6 in /  34693 hPa Calm   4.8 mph /  7.7 km/h 96 % 0.0 in /  0 mm
05:52 0.7 °F /  -17.4 °C 0.1 °F /  -17.7 °C 1024.6 in /  34693 hPa SSW 1.6 mph /  2.6 km/h 4.8 mph /  7.7 km/h 96 % 0.0 in /  0 mm
06:02 0.8 °F /  -17.3 °C 0.2 °F /  -17.7 °C 1024.6 in /  34693 hPa SSW 1.6 mph /  2.6 km/h 3.2 mph /  5.1 km/h 96 % 0.0 in /  0 mm
06:12 1.1 °F /  -17.2 °C 0.7 °F /  -17.4 °C 1024.9 in /  34703.1 hPa Calm   4.8 mph /  7.7 km/h 97 % 0.0 in /  0 mm
06:17 1.6 °F /  -16.9 °C 1.2 °F /  -17.1 °C 1024.9 in /  34703.1 hPa WNW 3.2 mph /  5.1 km/h 4.8 mph /  7.7 km/h 97 % 0.0 in /  0 mm
06:22 1.9 °F /  -16.7 °C 1.5 °F /  -16.9 °C 1024.9 in /  34703.1 hPa Calm   4.8 mph /  7.7 km/h 97 % 0.0 in /  0 mm
06:27 2.1 °F /  -16.6 °C 1.7 °F /  -16.8 °C 1024.9 in /  34703.1 hPa Calm   9.7 mph /  15.6 km/h 97 % 0.0 in /  0 mm
06:32 2.1 °F /  -16.6 °C 1.7 °F /  -16.8 °C 1024.9 in /  34703.1 hPa WSW 1.6 mph /  2.6 km/h 9.7 mph /  15.6 km/h 97 % 0.0 in /  0 mm
06:37 2.2 °F /  -16.6 °C 1.8 °F /  -16.8 °C 1024.9 in /  34703.1 hPa West 3.2 mph /  5.1 km/h 6.4 mph /  10.3 km/h 97 % 0.0 in /  0 mm
06:42 2.2 °F /  -16.6 °C 1.8 °F /  -16.8 °C 1024.9 in /  34703.1 hPa Calm   6.4 mph /  10.3 km/h 97 % 0.0 in /  0 mm
06:52 2.3 °F /  -16.5 °C 1.7 °F /  -16.8 °C 1024.9 in /  34703.1 hPa NW 1.6 mph /  2.6 km/h 9.7 mph /  15.6 km/h 96 % 0.0 in /  0 mm
06:57 2.3 °F /  -16.5 °C 1.7 °F /  -16.8 °C 1024.9 in /  34703.1 hPa Calm   9.7 mph /  15.6 km/h 96 % 0.0 in /  0 mm
07:02 2.3 °F /  -16.5 °C 1.7 °F /  -16.8 °C 1024.9 in /  34703.1 hPa WNW 4.8 mph /  7.7 km/h 9.7 mph /  15.6 km/h 96 % 0.0 in /  0 mm
07:12 2.4 °F /  -16.4 °C 1.8 °F /  -16.8 °C 1024.9 in /  34703.1 hPa WNW 3.2 mph /  5.1 km/h 9.7 mph /  15.6 km/h 96 % 0.0 in /  0 mm
07:22 2.4 °F /  -16.4 °C 1.8 °F /  -16.8 °C 1024.9 in /  34703.1 hPa WNW 4.8 mph /  7.7 km/h 11.3 mph /  18.2 km/h 96 % 0.0 in /  0 mm
07:27 2.4 °F /  -16.4 °C 1.8 °F /  -16.8 °C 1025.3 in /  34716.7 hPa Calm   9.7 mph /  15.6 km/h 96 % 0.0 in /  0 mm
07:32 2.4 °F /  -16.4 °C 1.8 °F /  -16.8 °C 1025.3 in /  34716.7 hPa NNW 3.2 mph /  5.1 km/h 9.7 mph /  15.6 km/h 96 % 0.0 in /  0 mm
07:42 2.4 °F /  -16.4 °C 1.8 °F /  -16.8 °C 1025.3 in /  34716.7 hPa NNW 4.8 mph /  7.7 km/h 6.4 mph /  10.3 km/h 96 % 0.0 in /  0 mm
07:52 2.4 °F /  -16.4 °C 1.8 °F /  -16.8 °C 1025.6 in /  34726.8 hPa NNW 1.6 mph /  2.6 km/h 8.0 mph /  12.9 km/h 96 % 0.0 in /  0 mm
07:57 2.5 °F /  -16.4 °C 1.9 °F /  -16.7 °C 1025.6 in /  34726.8 hPa NW 3.2 mph /  5.1 km/h 11.3 mph /  18.2 km/h 96 % 0.0 in /  0 mm
08:02 2.5 °F /  -16.4 °C 1.9 °F /  -16.7 °C 1025.6 in /  34726.8 hPa WNW 8.0 mph /  12.9 km/h 11.3 mph /  18.2 km/h 96 % 0.0 in /  0 mm
08:07 2.5 °F /  -16.4 °C 1.9 °F /  -16.7 °C 1025.6 in /  34726.8 hPa NW 8.0 mph /  12.9 km/h 12.9 mph /  20.8 km/h 96 % 0.0 in /  0 mm
08:12 2.5 °F /  -16.4 °C 1.9 °F /  -16.7 °C 1025.6 in /  34726.8 hPa WNW 9.7 mph /  15.6 km/h 12.9 mph /  20.8 km/h 96 % 0.0 in /  0 mm
08:17 2.5 °F /  -16.4 °C 1.9 °F /  -16.7 °C 1026.0 in /  34740.4 hPa WNW 8.0 mph /  12.9 km/h 12.9 mph /  20.8 km/h 96 % 0.0 in /  0 mm
08:22 2.6 °F /  -16.3 °C 2.0 °F /  -16.7 °C 1026.0 in /  34740.4 hPa WNW 8.0 mph /  12.9 km/h 12.9 mph /  20.8 km/h 96 % 0.0 in /  0 mm
08:27 2.6 °F /  -16.3 °C 2.0 °F /  -16.7 °C 1026.0 in /  34740.4 hPa NW 6.4 mph /  10.3 km/h 16.1 mph /  25.9 km/h 96 % 0.0 in /  0 mm
08:32 2.6 °F /  -16.3 °C 2.0 °F /  -16.7 °C 1026.0 in /  34740.4 hPa NW 8.0 mph /  12.9 km/h 16.1 mph /  25.9 km/h 96 % 0.0 in /  0 mm
08:37 2.5 °F /  -16.4 °C 1.9 °F /  -16.7 °C 1026.0 in /  34740.4 hPa WNW 1.6 mph /  2.6 km/h 16.1 mph /  25.9 km/h 96 % 0.0 in /  0 mm
08:42 2.5 °F /  -16.4 °C 1.9 °F /  -16.7 °C 1026.3 in /  34750.5 hPa WNW 9.7 mph /  15.6 km/h 16.1 mph /  25.9 km/h 96 % 0.0 in /  0 mm
08:52 2.6 °F /  -16.3 °C 2.0 °F /  -16.7 °C 1026.3 in /  34750.5 hPa WNW 4.8 mph /  7.7 km/h 12.9 mph /  20.8 km/h 96 % 0.0 in /  0 mm
09:02 2.6 °F /  -16.3 °C 2.0 °F /  -16.7 °C 1026.6 in /  34760.7 hPa West 3.2 mph /  5.1 km/h 12.9 mph /  20.8 km/h 96 % 0.0 in /  0 mm
09:12 2.6 °F /  -16.3 °C 1.9 °F /  -16.7 °C 1026.6 in /  34760.7 hPa WNW 3.2 mph /  5.1 km/h 12.9 mph /  20.8 km/h 95 % 0.0 in /  0 mm
09:17 2.7 °F /  -16.3 °C 2.0 °F /  -16.7 °C 1026.6 in /  34760.7 hPa WNW 3.2 mph /  5.1 km/h 9.7 mph /  15.6 km/h 95 % 0.0 in /  0 mm
09:22 2.7 °F /  -16.3 °C 2.0 °F /  -16.7 °C 1026.6 in /  34760.7 hPa WNW 9.7 mph /  15.6 km/h 9.7 mph /  15.6 km/h 95 % 0.0 in /  0 mm
09:32 2.7 °F /  -16.3 °C 2.0 °F /  -16.7 °C 1026.6 in /  34760.7 hPa WNW 4.8 mph /  7.7 km/h 9.7 mph /  15.6 km/h 95 % 0.0 in /  0 mm
09:42 2.7 °F /  -16.3 °C 2.0 °F /  -16.7 °C 1027.0 in /  34774.2 hPa NNW 3.2 mph /  5.1 km/h 9.7 mph /  15.6 km/h 95 % 0.0 in /  0 mm
09:47 2.8 °F /  -16.2 °C 2.1 °F /  -16.6 °C 1027.0 in /  34774.2 hPa WNW 1.6 mph /  2.6 km/h 8.0 mph /  12.9 km/h 95 % 0.0 in /  0 mm
09:52 2.8 °F /  -16.2 °C 2.1 °F /  -16.6 °C 1027.0 in /  34774.2 hPa Calm   8.0 mph /  12.9 km/h 95 % 0.0 in /  0 mm
10:02 2.9 °F /  -16.2 °C 2.3 °F /  -16.5 °C 1027.3 in /  34784.4 hPa WNW 3.2 mph /  5.1 km/h 9.7 mph /  15.6 km/h 96 % 0.0 in /  0 mm
10:07 2.9 °F /  -16.2 °C 2.3 °F /  -16.5 °C 1027.7 in /  34797.9 hPa WNW 3.2 mph /  5.1 km/h 8.0 mph /  12.9 km/h 96 % 0.0 in /  0 mm
10:12 3.0 °F /  -16.1 °C 2.4 °F /  -16.4 °C 1027.7 in /  34797.9 hPa Calm   8.0 mph /  12.9 km/h 96 % 0.0 in /  0 mm
10:17 3.0 °F /  -16.1 °C 2.3 °F /  -16.5 °C 1027.7 in /  34797.9 hPa WNW 9.7 mph /  15.6 km/h 9.7 mph /  15.6 km/h 95 % 0.0 in /  0 mm
10:22 3.0 °F /  -16.1 °C 2.4 °F /  -16.4 °C 1027.7 in /  34797.9 hPa WNW 3.2 mph /  5.1 km/h 8.0 mph /  12.9 km/h 96 % 0.0 in /  0 mm
10:27 2.9 °F /  -16.2 °C 2.2 °F /  -16.6 °C 1027.7 in /  34797.9 hPa WNW 6.4 mph /  10.3 km/h 14.5 mph /  23.3 km/h 95 % 0.0 in /  0 mm
10:32 2.9 °F /  -16.2 °C 2.2 °F /  -16.6 °C 1027.7 in /  34797.9 hPa WNW 11.3 mph /  18.2 km/h 14.5 mph /  23.3 km/h 95 % 0.0 in /  0 mm
10:37 2.9 °F /  -16.2 °C 2.2 °F /  -16.6 °C 1028.0 in /  34808.1 hPa WNW 3.2 mph /  5.1 km/h 14.5 mph /  23.3 km/h 95 % 0.0 in /  0 mm
10:42 2.9 °F /  -16.2 °C 2.2 °F /  -16.6 °C 1028.0 in /  34808.1 hPa WNW 8.0 mph /  12.9 km/h 14.5 mph /  23.3 km/h 95 % 0.0 in /  0 mm
10:52 3.0 °F /  -16.1 °C 2.4 °F /  -16.4 °C 1028.0 in /  34808.1 hPa NW 3.2 mph /  5.1 km/h 14.5 mph /  23.3 km/h 96 % 0.0 in /  0 mm
10:57 3.1 °F /  -16.1 °C 2.5 °F /  -16.4 °C 1028.0 in /  34808.1 hPa North 4.8 mph /  7.7 km/h 14.5 mph /  23.3 km/h 96 % 0.0 in /  0 mm
11:02 3.1 °F /  -16.1 °C 2.5 °F /  -16.4 °C 1028.3 in /  34818.2 hPa NNW 1.6 mph /  2.6 km/h 14.5 mph /  23.3 km/h 96 % 0.0 in /  0 mm
11:12 3.1 °F /  -16.1 °C 2.4 °F /  -16.4 °C 1028.3 in /  34818.2 hPa NNW 1.6 mph /  2.6 km/h 12.9 mph /  20.8 km/h 95 % 0.0 in /  0 mm
11:17 3.1 °F /  -16.1 °C 2.5 °F /  -16.4 °C 1028.3 in /  34818.2 hPa NW 6.4 mph /  10.3 km/h 12.9 mph /  20.8 km/h 96 % 0.0 in /  0 mm
11:22 3.1 °F /  -16.1 °C 2.5 °F /  -16.4 °C 1028.3 in /  34818.2 hPa NW 3.2 mph /  5.1 km/h 12.9 mph /  20.8 km/h 96 % 0.0 in /  0 mm
11:27 3.1 °F /  -16.1 °C 2.5 °F /  -16.4 °C 1028.3 in /  34818.2 hPa NNW 1.6 mph /  2.6 km/h 12.9 mph /  20.8 km/h 96 % 0.0 in /  0 mm
11:37 3.2 °F /  -16 °C 2.6 °F /  -16.3 °C 1028.3 in /  34818.2 hPa NNW 4.8 mph /  7.7 km/h 9.7 mph /  15.6 km/h 96 % 0.0 in /  0 mm
11:47 3.3 °F /  -15.9 °C 2.7 °F /  -16.3 °C 1028.0 in /  34808.1 hPa NW 1.6 mph /  2.6 km/h 9.7 mph /  15.6 km/h 96 % 0.0 in /  0 mm
11:52 3.4 °F /  -15.9 °C 2.8 °F /  -16.2 °C 1028.3 in /  34818.2 hPa WNW 1.6 mph /  2.6 km/h 9.7 mph /  15.6 km/h 96 % 0.0 in /  0 mm
11:57 3.4 °F /  -15.9 °C 2.8 °F /  -16.2 °C 1028.0 in /  34808.1 hPa West 1.6 mph /  2.6 km/h 9.7 mph /  15.6 km/h 96 % 0.0 in /  0 mm
12:07 3.4 °F /  -15.9 °C 2.8 °F /  -16.2 °C 1028.0 in /  34808.1 hPa NNW 6.4 mph /  10.3 km/h 8.0 mph /  12.9 km/h 96 % 0.0 in /  0 mm
12:12 3.5 °F /  -15.8 °C 2.9 °F /  -16.2 °C 1028.0 in /  34808.1 hPa NW 1.6 mph /  2.6 km/h 8.0 mph /  12.9 km/h 96 % 0.0 in /  0 mm
12:17 3.5 °F /  -15.8 °C 2.8 °F /  -16.2 °C 1028.0 in /  34808.1 hPa NW 1.6 mph /  2.6 km/h 9.7 mph /  15.6 km/h 95 % 0.0 in /  0 mm
12:22 3.6 °F /  -15.8 °C 2.9 °F /  -16.2 °C 1028.0 in /  34808.1 hPa Calm   9.7 mph /  15.6 km/h 95 % 0.0 in /  0 mm
12:27 3.6 °F /  -15.8 °C 2.9 °F /  -16.2 °C 1027.7 in /  34797.9 hPa NNE 1.6 mph /  2.6 km/h 6.4 mph /  10.3 km/h 95 % 0.0 in /  0 mm
12:32 3.5 °F /  -15.8 °C 2.6 °F /  -16.3 °C 1028.0 in /  34808.1 hPa Calm   6.4 mph /  10.3 km/h 94 % 0.0 in /  0 mm
12:37 3.5 °F /  -15.8 °C 2.6 °F /  -16.3 °C 1028.0 in /  34808.1 hPa Calm   4.8 mph /  7.7 km/h 94 % 0.0 in /  0 mm
12:47 3.7 °F /  -15.7 °C 2.8 °F /  -16.2 °C 1028.0 in /  34808.1 hPa Calm   1.6 mph /  2.6 km/h 94 % 0.0 in /  0 mm
12:57 3.8 °F /  -15.7 °C 2.9 °F /  -16.2 °C 1027.7 in /  34797.9 hPa NE 3.2 mph /  5.1 km/h 4.8 mph /  7.7 km/h 94 % 0.0 in /  0 mm
13:02 3.8 °F /  -15.7 °C 2.8 °F /  -16.2 °C 1027.7 in /  34797.9 hPa NE 1.6 mph /  2.6 km/h 4.8 mph /  7.7 km/h 93 % 0.0 in /  0 mm
13:12 3.8 °F /  -15.7 °C 2.8 °F /  -16.2 °C 1027.7 in /  34797.9 hPa Calm   4.8 mph /  7.7 km/h 93 % 0.0 in /  0 mm
13:17 3.8 °F /  -15.7 °C 2.6 °F /  -16.3 °C 1027.7 in /  34797.9 hPa NW 3.2 mph /  5.1 km/h 4.8 mph /  7.7 km/h 92 % 0.0 in /  0 mm
13:22 3.8 °F /  -15.7 °C 2.5 °F /  -16.4 °C 1027.7 in /  34797.9 hPa WNW 1.6 mph /  2.6 km/h 4.8 mph /  7.7 km/h 91 % 0.0 in /  0 mm
13:32 4.0 °F /  -15.6 °C 2.4 °F /  -16.4 °C 1027.7 in /  34797.9 hPa Calm   6.4 mph /  10.3 km/h 89 % 0.0 in /  0 mm
13:42 4.3 °F /  -15.4 °C 2.3 °F /  -16.5 °C 1027.7 in /  34797.9 hPa NW 4.8 mph /  7.7 km/h 9.7 mph /  15.6 km/h 87 % 0.0 in /  0 mm
13:52 4.6 °F /  -15.2 °C 2.5 °F /  -16.4 °C 1027.7 in /  34797.9 hPa Calm   9.7 mph /  15.6 km/h 86 % 0.0 in /  0 mm
13:57 4.6 °F /  -15.2 °C 2.6 °F /  -16.3 °C 1027.7 in /  34797.9 hPa WNW 4.8 mph /  7.7 km/h 6.4 mph /  10.3 km/h 87 % 0.0 in /  0 mm
14:02 4.7 °F /  -15.2 °C 2.4 °F /  -16.4 °C 1027.7 in /  34797.9 hPa WNW 1.6 mph /  2.6 km/h 6.4 mph /  10.3 km/h 85 % 0.0 in /  0 mm
14:12 4.6 °F /  -15.2 °C 2.1 °F /  -16.6 °C 1027.7 in /  34797.9 hPa West 3.2 mph /  5.1 km/h 8.0 mph /  12.9 km/h 84 % 0.0 in /  0 mm
14:17 4.4 °F /  -15.3 °C 1.9 °F /  -16.7 °C 1027.7 in /  34797.9 hPa NW 4.8 mph /  7.7 km/h 9.7 mph /  15.6 km/h 84 % 0.0 in /  0 mm
14:22 4.4 °F /  -15.3 °C 1.9 °F /  -16.7 °C 1027.7 in /  34797.9 hPa WNW 1.6 mph /  2.6 km/h 9.7 mph /  15.6 km/h 84 % 0.0 in /  0 mm
14:32 4.6 °F /  -15.2 °C 2.1 °F /  -16.6 °C 1027.7 in /  34797.9 hPa ENE 1.6 mph /  2.6 km/h 9.7 mph /  15.6 km/h 84 % 0.0 in /  0 mm
14:37 4.7 °F /  -15.2 °C 2.2 °F /  -16.6 °C 1027.7 in /  34797.9 hPa North 3.2 mph /  5.1 km/h 8.0 mph /  12.9 km/h 84 % 0.0 in /  0 mm
14:42 4.9 °F /  -15.1 °C 2.3 °F /  -16.5 °C 1027.7 in /  34797.9 hPa NNW 8.0 mph /  12.9 km/h 8.0 mph /  12.9 km/h 83 % 0.0 in /  0 mm
14:47 5.2 °F /  -14.9 °C 2.2 °F /  -16.6 °C 1027.7 in /  34797.9 hPa West 1.6 mph /  2.6 km/h 9.7 mph /  15.6 km/h 81 % 0.0 in /  0 mm
14:52 5.4 °F /  -14.8 °C 2.2 °F /  -16.6 °C 1027.7 in /  34797.9 hPa WNW 4.8 mph /  7.7 km/h 11.3 mph /  18.2 km/h 80 % 0.0 in /  0 mm
14:57 5.4 °F /  -14.8 °C 1.5 °F /  -16.9 °C 1027.7 in /  34797.9 hPa NW 9.7 mph /  15.6 km/h 11.3 mph /  18.2 km/h 76 % 0.0 in /  0 mm
15:02 5.1 °F /  -14.9 °C 1.4 °F /  -17 °C 1027.7 in /  34797.9 hPa WNW 9.7 mph /  15.6 km/h 11.3 mph /  18.2 km/h 77 % 0.0 in /  0 mm
15:07 4.9 °F /  -15.1 °C 1.6 °F /  -16.9 °C 1027.7 in /  34797.9 hPa NW 6.4 mph /  10.3 km/h 16.1 mph /  25.9 km/h 79 % 0.0 in /  0 mm
15:17 4.7 °F /  -15.2 °C 1.4 °F /  -17 °C 1027.7 in /  34797.9 hPa NW 4.8 mph /  7.7 km/h 11.3 mph /  18.2 km/h 79 % 0.0 in /  0 mm
15:22 4.8 °F /  -15.1 °C 1.6 °F /  -16.9 °C 1028.0 in /  34808.1 hPa WNW 8.0 mph /  12.9 km/h 9.7 mph /  15.6 km/h 80 % 0.0 in /  0 mm
15:32 4.8 °F /  -15.1 °C 1.6 °F /  -16.9 °C 1028.3 in /  34818.2 hPa NW 1.6 mph /  2.6 km/h 9.7 mph /  15.6 km/h 80 % 0.0 in /  0 mm
15:37 4.8 °F /  -15.1 °C 1.6 °F /  -16.9 °C 1028.3 in /  34818.2 hPa West 3.2 mph /  5.1 km/h 9.7 mph /  15.6 km/h 80 % 0.0 in /  0 mm
15:42 4.8 °F /  -15.1 °C 2.0 °F /  -16.7 °C 1028.3 in /  34818.2 hPa West 6.4 mph /  10.3 km/h 12.9 mph /  20.8 km/h 82 % 0.0 in /  0 mm
15:47 4.7 °F /  -15.2 °C 2.1 °F /  -16.6 °C 1028.7 in /  34831.8 hPa WNW 4.8 mph /  7.7 km/h 12.9 mph /  20.8 km/h 83 % 0.0 in /  0 mm
15:52 4.7 °F /  -15.2 °C 2.1 °F /  -16.6 °C 1028.3 in /  34818.2 hPa WNW 6.4 mph /  10.3 km/h 12.9 mph /  20.8 km/h 83 % 0.0 in /  0 mm
16:02 4.6 °F /  -15.2 °C 2.1 °F /  -16.6 °C 1028.3 in /  34818.2 hPa WNW 4.8 mph /  7.7 km/h 12.9 mph /  20.8 km/h 84 % 0.0 in /  0 mm
16:08 4.5 °F /  -15.3 °C 2.0 °F /  -16.7 °C 1028.3 in /  34818.2 hPa WNW 4.8 mph /  7.7 km/h 9.7 mph /  15.6 km/h 84 % 0.0 in /  0 mm
16:17 4.4 °F /  -15.3 °C 2.1 °F /  -16.6 °C 1028.7 in /  34831.8 hPa Calm   6.4 mph /  10.3 km/h 85 % 0.0 in /  0 mm
16:22 4.4 °F /  -15.3 °C 2.1 °F /  -16.6 °C 1028.3 in /  34818.2 hPa West 1.6 mph /  2.6 km/h 6.4 mph /  10.3 km/h 85 % 0.0 in /  0 mm
16:27 4.3 °F /  -15.4 °C 2.0 °F /  -16.7 °C 1028.3 in /  34818.2 hPa West 3.2 mph /  5.1 km/h 6.4 mph /  10.3 km/h 85 % 0.0 in /  0 mm
16:32 4.2 °F /  -15.4 °C 1.9 °F /  -16.7 °C 1028.7 in /  34831.8 hPa West 1.6 mph /  2.6 km/h 6.4 mph /  10.3 km/h 85 % 0.0 in /  0 mm
16:37 4.2 °F /  -15.4 °C 2.1 °F /  -16.6 °C 1028.7 in /  34831.8 hPa WSW 1.6 mph /  2.6 km/h 4.8 mph /  7.7 km/h 86 % 0.0 in /  0 mm
16:42 4.1 °F /  -15.5 °C 2.0 °F /  -16.7 °C 1028.7 in /  34831.8 hPa West 1.6 mph /  2.6 km/h 3.2 mph /  5.1 km/h 86 % 0.0 in /  0 mm
16:47 4.1 °F /  -15.5 °C 2.0 °F /  -16.7 °C 1028.7 in /  34831.8 hPa West 1.6 mph /  2.6 km/h 3.2 mph /  5.1 km/h 86 % 0.0 in /  0 mm
16:52 3.9 °F /  -15.6 °C 1.9 °F /  -16.7 °C 1028.7 in /  34831.8 hPa West 1.6 mph /  2.6 km/h 3.2 mph /  5.1 km/h 87 % 0.0 in /  0 mm
16:57 3.8 °F /  -15.7 °C 1.8 °F /  -16.8 °C 1028.7 in /  34831.8 hPa West 1.6 mph /  2.6 km/h 3.2 mph /  5.1 km/h 87 % 0.0 in /  0 mm
17:02 3.7 °F /  -15.7 °C 1.7 °F /  -16.8 °C 1028.7 in /  34831.8 hPa Calm   3.2 mph /  5.1 km/h 87 % 0.0 in /  0 mm
17:07 3.7 °F /  -15.7 °C 1.7 °F /  -16.8 °C 1028.7 in /  34831.8 hPa Calm   3.2 mph /  5.1 km/h 87 % 0.0 in /  0 mm
17:12 3.6 °F /  -15.8 °C 1.8 °F /  -16.8 °C 1029.0 in /  34841.9 hPa Calm   1.6 mph /  2.6 km/h 88 % 0.0 in /  0 mm
17:17 3.5 °F /  -15.8 °C 1.7 °F /  -16.8 °C 1029.0 in /  34841.9 hPa West 1.6 mph /  2.6 km/h 1.6 mph /  2.6 km/h 88 % 0.0 in /  0 mm
17:22 3.5 °F /  -15.8 °C 1.7 °F /  -16.8 °C 1029.0 in /  34841.9 hPa WNW 3.2 mph /  5.1 km/h 4.8 mph /  7.7 km/h 88 % 0.0 in /  0 mm
17:32 3.3 °F /  -15.9 °C 1.5 °F /  -16.9 °C 1029.0 in /  34841.9 hPa Calm   4.8 mph /  7.7 km/h 88 % 0.0 in /  0 mm
17:42 3.1 °F /  -16.1 °C 1.6 °F /  -16.9 °C 1029.0 in /  34841.9 hPa Calm   3.2 mph /  5.1 km/h 90 % 0.0 in /  0 mm
17:47 3.0 °F /  -16.1 °C 1.5 °F /  -16.9 °C 1029.3 in /  34852.1 hPa West 1.6 mph /  2.6 km/h 3.2 mph /  5.1 km/h 90 % 0.0 in /  0 mm
17:52 3.1 °F /  -16.1 °C 1.6 °F /  -16.9 °C 1029.0 in /  34841.9 hPa West 1.6 mph /  2.6 km/h 3.2 mph /  5.1 km/h 90 % 0.0 in /  0 mm
17:57 3.1 °F /  -16.1 °C 1.8 °F /  -16.8 °C 1029.3 in /  34852.1 hPa West 1.6 mph /  2.6 km/h 3.2 mph /  5.1 km/h 91 % 0.0 in /  0 mm
18:02 3.2 °F /  -16 °C 1.9 °F /  -16.7 °C 1029.3 in /  34852.1 hPa Calm   3.2 mph /  5.1 km/h 91 % 0.0 in /  0 mm
18:07 3.1 °F /  -16.1 °C 1.8 °F /  -16.8 °C 1029.3 in /  34852.1 hPa Calm   4.8 mph /  7.7 km/h 91 % 0.0 in /  0 mm
18:12 3.0 °F /  -16.1 °C 1.7 °F /  -16.8 °C 1029.3 in /  34852.1 hPa Calm   4.8 mph /  7.7 km/h 91 % 0.0 in /  0 mm
18:17 3.0 °F /  -16.1 °C 1.8 °F /  -16.8 °C 1029.3 in /  34852.1 hPa WSW 1.6 mph /  2.6 km/h 4.8 mph /  7.7 km/h 92 % 0.0 in /  0 mm
18:27 3.0 °F /  -16.1 °C 1.8 °F /  -16.8 °C 1029.3 in /  34852.1 hPa Calm   3.2 mph /  5.1 km/h 92 % 0.0 in /  0 mm
18:32 2.9 °F /  -16.2 °C 1.6 °F /  -16.9 °C 1029.3 in /  34852.1 hPa Calm   1.6 mph /  2.6 km/h 91 % 0.0 in /  0 mm
18:37 2.7 °F /  -16.3 °C 1.5 °F /  -16.9 °C 1029.3 in /  34852.1 hPa Calm   1.6 mph /  2.6 km/h 92 % 0.0 in /  0 mm
18:42 2.6 °F /  -16.3 °C 1.4 °F /  -17 °C 1029.3 in /  34852.1 hPa Calm   1.6 mph /  2.6 km/h 92 % 0.0 in /  0 mm
18:47 2.5 °F /  -16.4 °C 1.3 °F /  -17.1 °C 1029.3 in /  34852.1 hPa Calm   1.6 mph /  2.6 km/h 92 % 0.0 in /  0 mm
18:52 2.4 °F /  -16.4 °C 1.4 °F /  -17 °C 1029.3 in /  34852.1 hPa Calm   1.6 mph /  2.6 km/h 93 % 0.0 in /  0 mm
18:57 2.3 °F /  -16.5 °C 1.3 °F /  -17.1 °C 1029.3 in /  34852.1 hPa Calm   1.6 mph /  2.6 km/h 93 % 0.0 in /  0 mm
19:02 2.3 °F /  -16.5 °C 1.3 °F /  -17.1 °C 1029.3 in /  34852.1 hPa Calm   1.6 mph /  2.6 km/h 93 % 0.0 in /  0 mm
19:12 2.2 °F /  -16.6 °C 1.3 °F /  -17.1 °C 1029.3 in /  34852.1 hPa Calm   1.6 mph /  2.6 km/h 94 % 0.0 in /  0 mm
19:22 2.2 °F /  -16.6 °C 1.5 °F /  -16.9 °C 1029.3 in /  34852.1 hPa Calm   1.6 mph /  2.6 km/h 95 % 0.0 in /  0 mm
19:27 2.2 °F /  -16.6 °C 1.3 °F /  -17.1 °C 1029.3 in /  34852.1 hPa Calm   1.6 mph /  2.6 km/h 94 % 0.0 in /  0 mm
19:32 2.0 °F /  -16.7 °C 1.1 °F /  -17.2 °C 1029.3 in /  34852.1 hPa Calm   1.6 mph /  2.6 km/h 94 % 0.0 in /  0 mm
19:37 1.9 °F /  -16.7 °C 1.0 °F /  -17.2 °C 1029.3 in /  34852.1 hPa Calm   1.6 mph /  2.6 km/h 94 % 0.0 in /  0 mm
19:42 1.8 °F /  -16.8 °C 0.9 °F /  -17.3 °C 1029.3 in /  34852.1 hPa Calm   1.6 mph /  2.6 km/h 94 % 0.0 in /  0 mm
19:47 1.7 °F /  -16.8 °C 0.8 °F /  -17.3 °C 1029.7 in /  34865.6 hPa Calm   1.6 mph /  2.6 km/h 94 % 0.0 in /  0 mm
19:52 1.8 °F /  -16.8 °C 1.1 °F /  -17.2 °C 1029.7 in /  34865.6 hPa West 3.2 mph /  5.1 km/h 3.2 mph /  5.1 km/h 95 % 0.0 in /  0 mm
19:57 2.1 °F /  -16.6 °C 1.5 °F /  -16.9 °C 1029.7 in /  34865.6 hPa West 1.6 mph /  2.6 km/h 4.8 mph /  7.7 km/h 96 % 0.0 in /  0 mm
20:02 2.2 °F /  -16.6 °C 1.6 °F /  -16.9 °C 1029.7 in /  34865.6 hPa West 3.2 mph /  5.1 km/h 4.8 mph /  7.7 km/h 96 % 0.0 in /  0 mm
20:12 2.4 °F /  -16.4 °C 1.7 °F /  -16.8 °C 1029.7 in /  34865.6 hPa SW 4.8 mph /  7.7 km/h 4.8 mph /  7.7 km/h 95 % 0.0 in /  0 mm
20:22 2.7 °F /  -16.3 °C 2.0 °F /  -16.7 °C 1029.7 in /  34865.6 hPa SW 4.8 mph /  7.7 km/h 9.7 mph /  15.6 km/h 95 % 0.0 in /  0 mm
20:32 2.7 °F /  -16.3 °C 2.0 °F /  -16.7 °C 1029.7 in /  34865.6 hPa WSW 3.2 mph /  5.1 km/h 9.7 mph /  15.6 km/h 95 % 0.0 in /  0 mm
20:37 2.8 °F /  -16.2 °C 2.1 °F /  -16.6 °C 1029.7 in /  34865.6 hPa WSW 9.7 mph /  15.6 km/h 11.3 mph /  18.2 km/h 95 % 0.0 in /  0 mm
20:42 2.8 °F /  -16.2 °C 2.1 °F /  -16.6 °C 1029.7 in /  34865.6 hPa West 3.2 mph /  5.1 km/h 11.3 mph /  18.2 km/h 95 % 0.0 in /  0 mm
20:47 2.8 °F /  -16.2 °C 2.1 °F /  -16.6 °C 1029.7 in /  34865.6 hPa West 3.2 mph /  5.1 km/h 11.3 mph /  18.2 km/h 95 % 0.0 in /  0 mm
20:57 2.9 °F /  -16.2 °C 2.2 °F /  -16.6 °C 1029.3 in /  34852.1 hPa SW 4.8 mph /  7.7 km/h 11.3 mph /  18.2 km/h 95 % 0.0 in /  0 mm
21:02 2.9 °F /  -16.2 °C 2.2 °F /  -16.6 °C 1029.3 in /  34852.1 hPa WSW 6.4 mph /  10.3 km/h 11.3 mph /  18.2 km/h 95 % 0.0 in /  0 mm
21:07 2.8 °F /  -16.2 °C 2.1 °F /  -16.6 °C 1029.3 in /  34852.1 hPa WSW 3.2 mph /  5.1 km/h 11.3 mph /  18.2 km/h 95 % 0.0 in /  0 mm
21:12 2.8 °F /  -16.2 °C 2.1 °F /  -16.6 °C 1029.3 in /  34852.1 hPa WSW 4.8 mph /  7.7 km/h 11.3 mph /  18.2 km/h 95 % 0.0 in /  0 mm
21:17 2.8 °F /  -16.2 °C 2.1 °F /  -16.6 °C 1029.3 in /  34852.1 hPa WSW 4.8 mph /  7.7 km/h 11.3 mph /  18.2 km/h 95 % 0.0 in /  0 mm
21:22 2.8 °F /  -16.2 °C 2.1 °F /  -16.6 °C 1029.3 in /  34852.1 hPa WSW 6.4 mph /  10.3 km/h 11.3 mph /  18.2 km/h 95 % 0.0 in /  0 mm
21:27 2.9 °F /  -16.2 °C 2.2 °F /  -16.6 °C 1029.3 in /  34852.1 hPa WSW 6.4 mph /  10.3 km/h 11.3 mph /  18.2 km/h 95 % 0.0 in /  0 mm
21:37 2.9 °F /  -16.2 °C 2.2 °F /  -16.6 °C 1029.3 in /  34852.1 hPa WSW 9.7 mph /  15.6 km/h 11.3 mph /  18.2 km/h 95 % 0.0 in /  0 mm
21:42 2.9 °F /  -16.2 °C 2.2 °F /  -16.6 °C 1029.7 in /  34865.6 hPa SW 4.8 mph /  7.7 km/h 11.3 mph /  18.2 km/h 95 % 0.0 in /  0 mm
21:52 2.9 °F /  -16.2 °C 2.2 °F /  -16.6 °C 1029.3 in /  34852.1 hPa SW 3.2 mph /  5.1 km/h 11.3 mph /  18.2 km/h 95 % 0.0 in /  0 mm
21:57 2.9 °F /  -16.2 °C 2.2 °F /  -16.6 °C 1029.3 in /  34852.1 hPa SW 4.8 mph /  7.7 km/h 11.3 mph /  18.2 km/h 95 % 0.0 in /  0 mm
22:02 2.9 °F /  -16.2 °C 2.2 °F /  -16.6 °C 1029.3 in /  34852.1 hPa SW 3.2 mph /  5.1 km/h 11.3 mph /  18.2 km/h 95 % 0.0 in /  0 mm
22:12 3.1 °F /  -16.1 °C 2.4 °F /  -16.4 °C 1029.3 in /  34852.1 hPa SW 4.8 mph /  7.7 km/h 11.3 mph /  18.2 km/h 95 % 0.0 in /  0 mm
22:22 3.1 °F /  -16.1 °C 2.4 °F /  -16.4 °C 1029.0 in /  34841.9 hPa West 6.4 mph /  10.3 km/h 11.3 mph /  18.2 km/h 95 % 0.0 in /  0 mm
22:32 3.1 °F /  -16.1 °C 2.4 °F /  -16.4 °C 1029.3 in /  34852.1 hPa SW 3.2 mph /  5.1 km/h 11.3 mph /  18.2 km/h 95 % 0.0 in /  0 mm
22:37 3.1 °F /  -16.1 °C 2.4 °F /  -16.4 °C 1029.0 in /  34841.9 hPa SW 3.2 mph /  5.1 km/h 11.3 mph /  18.2 km/h 95 % 0.0 in /  0 mm
22:42 3.1 °F /  -16.1 °C 2.4 °F /  -16.4 °C 1029.0 in /  34841.9 hPa SW 4.8 mph /  7.7 km/h 11.3 mph /  18.2 km/h 95 % 0.0 in /  0 mm
22:47 3.1 °F /  -16.1 °C 2.4 °F /  -16.4 °C 1029.0 in /  34841.9 hPa SSW 4.8 mph /  7.7 km/h 11.3 mph /  18.2 km/h 95 % 0.0 in /  0 mm
22:52 3.0 °F /  -16.1 °C 2.3 °F /  -16.5 °C 1029.0 in /  34841.9 hPa SW 4.8 mph /  7.7 km/h 11.3 mph /  18.2 km/h 95 % 0.0 in /  0 mm
22:57 3.1 °F /  -16.1 °C 2.4 °F /  -16.4 °C 1029.0 in /  34841.9 hPa SSW 4.8 mph /  7.7 km/h 9.7 mph /  15.6 km/h 95 % 0.0 in /  0 mm
23:02 3.1 °F /  -16.1 °C 2.4 °F /  -16.4 °C 1028.7 in /  34831.8 hPa SW 3.2 mph /  5.1 km/h 9.7 mph /  15.6 km/h 95 % 0.0 in /  0 mm
23:07 3.0 °F /  -16.1 °C 2.3 °F /  -16.5 °C 1028.7 in /  34831.8 hPa South 3.2 mph /  5.1 km/h 11.3 mph /  18.2 km/h 95 % 0.0 in /  0 mm
23:12 3.0 °F /  -16.1 °C 2.3 °F /  -16.5 °C 1028.7 in /  34831.8 hPa SSW 3.2 mph /  5.1 km/h 11.3 mph /  18.2 km/h 95 % 0.0 in /  0 mm
23:17 3.0 °F /  -16.1 °C 2.3 °F /  -16.5 °C 1028.7 in /  34831.8 hPa SSW 1.6 mph /  2.6 km/h 9.7 mph /  15.6 km/h 95 % 0.0 in /  0 mm
23:27 3.0 °F /  -16.1 °C 2.3 °F /  -16.5 °C 1028.7 in /  34831.8 hPa SSW 4.8 mph /  7.7 km/h 6.4 mph /  10.3 km/h 95 % 0.0 in /  0 mm
23:32 3.0 °F /  -16.1 °C 2.4 °F /  -16.4 °C 1028.7 in /  34831.8 hPa SW 1.6 mph /  2.6 km/h 6.4 mph /  10.3 km/h 96 % 0.0 in /  0 mm
23:42 3.1 °F /  -16.1 °C 2.5 °F /  -16.4 °C 1028.7 in /  34831.8 hPa South 1.6 mph /  2.6 km/h 9.7 mph /  15.6 km/h 96 % 0.0 in /  0 mm
23:52 3.1 °F /  -16.1 °C 2.5 °F /  -16.4 °C 1028.3 in /  34818.2 hPa SSW 1.6 mph /  2.6 km/h 9.7 mph /  15.6 km/h 96 % 0.0 in /  0 mm
Meteo18
Compliments of Weather Underground - 4 mb

Script developed by  Jim McMurry - jmcmurry@mwt.net Adapted for the template by  Wim van der Kuil - Leuven-Template.eu

You find our weather info also at:

European Weather Network

Weather Underground

Equipment we use:

Weather-station
Davis Vue

Weather-program
Meteobridge

Weather-server
Raspberry PI 2 B+

Provider
1 and 1

Davis Vue

Meteobridge

Raspberry PI 2 B+

1 and 1